AUA736 LYPG-LOWW
Flight info
| Callsign | AUA736 |
|---|---|
| Flight time | 1h 13m |
| Altitude | 36000 |
| Route | NIK DCT GACMO DCT OBUTI OBUTI2W |
| Aircraft | A320/M-SDE3FGHIRWY/LB1 |
Departure
| Time | 2026-04-26 12:39 |
|---|---|
| Airport | Podgorica Airport / Podgorica Golubovci Airbase (LYPG) |
Arrival
| Time | 2026-04-26 13:52 |
|---|---|
| Airport | Vienna International Airport (LOWW) |
| Time | Latitude | Longitude | Altitude | Speed | Heading |
|---|---|---|---|---|---|
| 2026-04-26 12:17 | 42.36798 | 19.24759 | 112 ft | 0 kts | 318° |
| 2026-04-26 12:35 | 42.36803 | 19.24756 | 112 ft | 0 kts | 346° |
| 2026-04-26 12:35 | 42.36812 | 19.24764 | 112 ft | 2 kts | 53° |
| 2026-04-26 12:35 | 42.36809 | 19.24791 | 112 ft | 3 kts | 117° |
| 2026-04-26 12:35 | 42.36797 | 19.24829 | 112 ft | 3 kts | 84° |
| 2026-04-26 12:36 | 42.36827 | 19.24846 | 112 ft | 6 kts | 4° |
| 2026-04-26 12:36 | 42.36887 | 19.24852 | 113 ft | 10 kts | 4° |
| 2026-04-26 12:36 | 42.36933 | 19.24908 | 115 ft | 9 kts | 90° |
| 2026-04-26 12:36 | 42.36927 | 19.25008 | 115 ft | 11 kts | 83° |
| 2026-04-26 12:37 | 42.36995 | 19.25058 | 116 ft | 13 kts | 4° |
| 2026-04-26 12:37 | 42.37082 | 19.25091 | 118 ft | 12 kts | 58° |
| 2026-04-26 12:37 | 42.37071 | 19.25208 | 119 ft | 12 kts | 118° |
| 2026-04-26 12:37 | 42.37022 | 19.25296 | 121 ft | 11 kts | 164° |
| 2026-04-26 12:38 | 42.36920 | 19.25288 | 119 ft | 31 kts | 184° |
| 2026-04-26 12:38 | 42.36438 | 19.25238 | 112 ft | 105 kts | 184° |
| 2026-04-26 12:38 | 42.35505 | 19.25143 | 100 ft | 163 kts | 184° |
| 2026-04-26 12:38 | 42.34306 | 19.25017 | 462 ft | 178 kts | 184° |
| 2026-04-26 12:39 | 42.33037 | 19.24875 | 944 ft | 191 kts | 184° |
| 2026-04-26 12:39 | 42.31659 | 19.24733 | 1367 ft | 209 kts | 184° |
| 2026-04-26 12:39 | 42.30110 | 19.24585 | 1755 ft | 233 kts | 184° |
| 2026-04-26 12:39 | 42.28505 | 19.24074 | 2246 ft | 251 kts | 211° |
| 2026-04-26 12:40 | 42.27307 | 19.22318 | 2835 ft | 263 kts | 248° |
| 2026-04-26 12:40 | 42.27073 | 19.19926 | 3605 ft | 264 kts | 283° |
| 2026-04-26 12:40 | 42.27868 | 19.17748 | 4448 ft | 263 kts | 317° |
| 2026-04-26 12:40 | 42.29389 | 19.16555 | 5267 ft | 261 kts | 349° |
| 2026-04-26 12:41 | 42.31192 | 19.16285 | 6147 ft | 263 kts | 356° |
| 2026-04-26 12:41 | 42.32999 | 19.16030 | 7001 ft | 267 kts | 355° |
| 2026-04-26 12:41 | 42.34848 | 19.15735 | 7886 ft | 270 kts | 354° |
| 2026-04-26 12:41 | 42.36724 | 19.15424 | 8739 ft | 274 kts | 354° |
| 2026-04-26 12:42 | 42.38594 | 19.15109 | 9564 ft | 278 kts | 354° |
| 2026-04-26 12:42 | 42.40510 | 19.14786 | 10387 ft | 281 kts | 354° |
| 2026-04-26 12:42 | 42.42460 | 19.14457 | 11166 ft | 285 kts | 353° |
| 2026-04-26 12:42 | 42.44446 | 19.14121 | 11937 ft | 289 kts | 353° |
| 2026-04-26 12:43 | 42.46427 | 19.13786 | 12688 ft | 292 kts | 353° |
| 2026-04-26 12:43 | 42.48467 | 19.13441 | 13455 ft | 296 kts | 352° |
| 2026-04-26 12:43 | 42.50513 | 19.13094 | 14205 ft | 300 kts | 352° |
| 2026-04-26 12:43 | 42.52585 | 19.12733 | 14939 ft | 304 kts | 349° |
| 2026-04-26 12:44 | 42.54639 | 19.12000 | 15663 ft | 306 kts | 338° |
| 2026-04-26 12:44 | 42.56534 | 19.10742 | 16404 ft | 308 kts | 329° |
| 2026-04-26 12:44 | 42.58358 | 19.09206 | 17099 ft | 312 kts | 327° |
| 2026-04-26 12:44 | 42.60199 | 19.07600 | 17789 ft | 315 kts | 326° |
| 2026-04-26 12:45 | 42.62025 | 19.06006 | 18472 ft | 318 kts | 326° |
| 2026-04-26 12:45 | 42.63902 | 19.04374 | 19155 ft | 321 kts | 327° |
| 2026-04-26 12:45 | 42.65789 | 19.02739 | 19824 ft | 323 kts | 327° |
| 2026-04-26 12:45 | 42.67664 | 19.01118 | 20476 ft | 326 kts | 327° |
| 2026-04-26 12:46 | 42.69586 | 18.99456 | 21120 ft | 328 kts | 327° |
| 2026-04-26 12:46 | 42.71522 | 18.97782 | 21752 ft | 330 kts | 327° |
| 2026-04-26 12:46 | 42.73449 | 18.96117 | 22360 ft | 333 kts | 327° |
| 2026-04-26 12:46 | 42.75418 | 18.94415 | 22948 ft | 336 kts | 327° |
| 2026-04-26 12:47 | 42.77388 | 18.92696 | 23523 ft | 339 kts | 325° |
| 2026-04-26 12:47 | 42.79348 | 18.90825 | 23807 ft | 350 kts | 323° |
| 2026-04-26 12:47 | 42.81352 | 18.88841 | 24043 ft | 362 kts | 323° |
| 2026-04-26 12:47 | 42.83409 | 18.86794 | 24286 ft | 373 kts | 323° |
| 2026-04-26 12:48 | 42.85526 | 18.84686 | 24713 ft | 379 kts | 323° |
| 2026-04-26 12:48 | 42.87663 | 18.82559 | 25232 ft | 381 kts | 323° |
| 2026-04-26 12:48 | 42.89794 | 18.80435 | 25718 ft | 384 kts | 323° |
| 2026-04-26 12:48 | 42.91945 | 18.78289 | 26176 ft | 387 kts | 323° |
| 2026-04-26 12:49 | 42.94142 | 18.76096 | 26640 ft | 389 kts | 323° |
| 2026-04-26 12:49 | 42.96308 | 18.73930 | 27071 ft | 392 kts | 323° |
| 2026-04-26 12:49 | 42.98522 | 18.71714 | 27489 ft | 394 kts | 323° |
| 2026-04-26 12:49 | 43.00731 | 18.69500 | 27902 ft | 397 kts | 323° |
| 2026-04-26 12:50 | 43.02947 | 18.67277 | 28296 ft | 399 kts | 323° |
| 2026-04-26 12:50 | 43.05209 | 18.65006 | 28692 ft | 402 kts | 323° |
| 2026-04-26 12:50 | 43.07455 | 18.62748 | 29073 ft | 404 kts | 323° |
| 2026-04-26 12:50 | 43.09721 | 18.60471 | 29465 ft | 406 kts | 323° |
| 2026-04-26 12:51 | 43.12035 | 18.58212 | 29837 ft | 409 kts | 325° |
| 2026-04-26 12:51 | 43.14439 | 18.56123 | 30202 ft | 411 kts | 328° |
| 2026-04-26 12:51 | 43.16923 | 18.54217 | 30561 ft | 414 kts | 332° |
| 2026-04-26 12:51 | 43.19516 | 18.52441 | 30928 ft | 416 kts | 333° |
| 2026-04-26 12:52 | 43.22124 | 18.50712 | 31399 ft | 415 kts | 333° |
| 2026-04-26 12:52 | 43.24688 | 18.49019 | 31918 ft | 413 kts | 333° |
| 2026-04-26 12:52 | 43.27262 | 18.47314 | 32397 ft | 411 kts | 333° |
| 2026-04-26 12:52 | 43.29839 | 18.45602 | 32831 ft | 410 kts | 333° |
| 2026-04-26 12:53 | 43.32396 | 18.43901 | 33238 ft | 409 kts | 333° |
| 2026-04-26 12:53 | 43.34960 | 18.42190 | 33632 ft | 408 kts | 333° |
| 2026-04-26 12:53 | 43.37502 | 18.40491 | 34016 ft | 407 kts | 333° |
| 2026-04-26 12:53 | 43.40046 | 18.38789 | 34385 ft | 406 kts | 333° |
| 2026-04-26 12:54 | 43.42564 | 18.37103 | 34711 ft | 406 kts | 333° |
| 2026-04-26 12:54 | 43.45113 | 18.35394 | 34992 ft | 407 kts | 333° |
| 2026-04-26 12:54 | 43.47681 | 18.33664 | 35248 ft | 408 kts | 332° |
| 2026-04-26 12:54 | 43.50218 | 18.31945 | 35492 ft | 409 kts | 332° |
| 2026-04-26 12:55 | 43.52778 | 18.30211 | 35734 ft | 410 kts | 332° |
| 2026-04-26 12:55 | 43.55321 | 18.28492 | 35963 ft | 411 kts | 332° |
| 2026-04-26 12:55 | 43.57910 | 18.26741 | 36129 ft | 412 kts | 332° |
| 2026-04-26 12:56 | 43.63063 | 18.23259 | 36143 ft | 413 kts | 332° |
| 2026-04-26 12:56 | 43.68206 | 18.19781 | 36151 ft | 413 kts | 332° |
| 2026-04-26 12:57 | 43.73374 | 18.16280 | 36160 ft | 413 kts | 332° |
| 2026-04-26 12:57 | 43.78513 | 18.12792 | 36164 ft | 413 kts | 332° |
| 2026-04-26 12:58 | 43.86236 | 18.07539 | 36156 ft | 413 kts | 332° |
| 2026-04-26 12:58 | 43.91374 | 18.04037 | 36152 ft | 413 kts | 332° |
| 2026-04-26 12:59 | 43.96527 | 18.00517 | 36147 ft | 414 kts | 332° |
| 2026-04-26 12:59 | 44.01689 | 17.96983 | 36147 ft | 414 kts | 332° |
| 2026-04-26 13:00 | 44.06831 | 17.93457 | 36158 ft | 413 kts | 333° |
| 2026-04-26 13:00 | 44.11954 | 17.89940 | 36159 ft | 413 kts | 333° |
| 2026-04-26 13:01 | 44.17108 | 17.86411 | 36159 ft | 413 kts | 333° |
| 2026-04-26 13:01 | 44.22284 | 17.82851 | 36154 ft | 413 kts | 333° |
| 2026-04-26 13:02 | 44.27420 | 17.79305 | 36156 ft | 414 kts | 333° |
| 2026-04-26 13:02 | 44.32550 | 17.75755 | 36156 ft | 414 kts | 333° |
| 2026-04-26 13:03 | 44.37700 | 17.72182 | 36154 ft | 414 kts | 333° |
| 2026-04-26 13:03 | 44.42879 | 17.68581 | 36160 ft | 417 kts | 333° |
| 2026-04-26 13:04 | 44.48125 | 17.64926 | 36159 ft | 428 kts | 333° |
| 2026-04-26 13:04 | 44.53500 | 17.61176 | 36159 ft | 436 kts | 333° |
| 2026-04-26 13:05 | 44.58948 | 17.57368 | 36151 ft | 441 kts | 333° |
| 2026-04-26 13:05 | 44.64428 | 17.53526 | 36150 ft | 442 kts | 333° |
| 2026-04-26 13:06 | 44.69899 | 17.49684 | 36147 ft | 442 kts | 333° |
| 2026-04-26 13:06 | 44.75411 | 17.45804 | 36145 ft | 442 kts | 333° |
| 2026-04-26 13:07 | 44.80883 | 17.41942 | 36141 ft | 442 kts | 333° |
| 2026-04-26 13:07 | 44.86375 | 17.38059 | 36137 ft | 442 kts | 333° |
| 2026-04-26 13:08 | 44.91880 | 17.34158 | 36139 ft | 442 kts | 332° |
| 2026-04-26 13:08 | 44.97349 | 17.30245 | 36140 ft | 441 kts | 332° |
| 2026-04-26 13:09 | 45.02791 | 17.26355 | 36140 ft | 441 kts | 332° |
| 2026-04-26 13:09 | 45.08271 | 17.22440 | 36144 ft | 440 kts | 332° |
| 2026-04-26 13:10 | 45.13720 | 17.18553 | 36146 ft | 440 kts | 332° |
| 2026-04-26 13:10 | 45.19212 | 17.14638 | 36149 ft | 441 kts | 332° |
| 2026-04-26 13:11 | 45.24665 | 17.10732 | 36148 ft | 441 kts | 332° |
| 2026-04-26 13:11 | 45.30136 | 17.06800 | 36151 ft | 441 kts | 332° |
| 2026-04-26 13:12 | 45.35572 | 17.02883 | 36154 ft | 440 kts | 332° |
| 2026-04-26 13:12 | 45.41035 | 16.98937 | 36156 ft | 439 kts | 332° |
| 2026-04-26 13:13 | 45.46464 | 16.95005 | 36158 ft | 439 kts | 332° |
| 2026-04-26 13:13 | 45.51867 | 16.91083 | 36151 ft | 440 kts | 332° |
| 2026-04-26 13:14 | 45.57315 | 16.87122 | 36159 ft | 440 kts | 332° |
| 2026-04-26 13:14 | 45.62780 | 16.83138 | 36158 ft | 440 kts | 332° |
| 2026-04-26 13:15 | 45.68215 | 16.79167 | 36159 ft | 440 kts | 332° |
| 2026-04-26 13:15 | 45.72759 | 16.75840 | 36166 ft | 439 kts | 332° |
| 2026-04-26 13:16 | 45.79066 | 16.71213 | 36162 ft | 439 kts | 332° |
| 2026-04-26 13:16 | 45.84527 | 16.67199 | 36159 ft | 440 kts | 332° |
| 2026-04-26 13:17 | 45.92689 | 16.61179 | 36160 ft | 440 kts | 332° |
| 2026-04-26 13:18 | 46.00782 | 16.55191 | 36162 ft | 422 kts | 332° |
| 2026-04-26 13:18 | 46.05886 | 16.51401 | 35711 ft | 411 kts | 332° |
| 2026-04-26 13:19 | 46.08409 | 16.49523 | 35437 ft | 409 kts | 332° |
| 2026-04-26 13:19 | 46.10940 | 16.47640 | 35153 ft | 406 kts | 332° |
| 2026-04-26 13:19 | 46.13417 | 16.45802 | 34874 ft | 406 kts | 332° |
| 2026-04-26 13:19 | 46.15937 | 16.43933 | 34527 ft | 407 kts | 332° |
| 2026-04-26 13:20 | 46.18454 | 16.42057 | 34099 ft | 408 kts | 332° |
| 2026-04-26 13:20 | 46.20947 | 16.40194 | 33576 ft | 409 kts | 332° |
| 2026-04-26 13:20 | 46.23464 | 16.38310 | 32993 ft | 409 kts | 332° |
| 2026-04-26 13:20 | 46.26001 | 16.36405 | 32392 ft | 409 kts | 332° |
| 2026-04-26 13:21 | 46.28507 | 16.34521 | 31781 ft | 409 kts | 331° |
| 2026-04-26 13:21 | 46.30192 | 16.33248 | 31369 ft | 409 kts | 331° |
| 2026-04-26 13:21 | 46.33557 | 16.30708 | 30530 ft | 409 kts | 332° |
| 2026-04-26 13:21 | 46.36106 | 16.29037 | 30122 ft | 407 kts | 336° |
| 2026-04-26 13:22 | 46.38768 | 16.27680 | 29705 ft | 405 kts | 342° |
| 2026-04-26 13:22 | 46.41521 | 16.26661 | 29278 ft | 403 kts | 347° |
| 2026-04-26 13:22 | 46.44266 | 16.25942 | 28860 ft | 401 kts | 348° |
| 2026-04-26 13:22 | 46.47008 | 16.25292 | 28439 ft | 398 kts | 349° |
| 2026-04-26 13:23 | 46.49710 | 16.24663 | 28025 ft | 395 kts | 349° |
| 2026-04-26 13:23 | 46.52417 | 16.24030 | 27606 ft | 392 kts | 349° |
| 2026-04-26 13:23 | 46.55100 | 16.23398 | 27192 ft | 389 kts | 349° |
| 2026-04-26 13:23 | 46.57740 | 16.22774 | 26785 ft | 386 kts | 349° |
| 2026-04-26 13:24 | 46.60379 | 16.22149 | 26387 ft | 383 kts | 349° |
| 2026-04-26 13:24 | 46.62989 | 16.21529 | 25982 ft | 380 kts | 349° |
| 2026-04-26 13:24 | 46.65587 | 16.20910 | 25577 ft | 377 kts | 349° |
| 2026-04-26 13:24 | 46.68177 | 16.20293 | 25172 ft | 375 kts | 349° |
| 2026-04-26 13:25 | 46.70719 | 16.19685 | 24756 ft | 372 kts | 349° |
| 2026-04-26 13:25 | 46.73246 | 16.19082 | 24349 ft | 369 kts | 349° |
| 2026-04-26 13:25 | 46.75788 | 16.18473 | 23932 ft | 366 kts | 349° |
| 2026-04-26 13:25 | 46.78280 | 16.17877 | 23521 ft | 364 kts | 349° |
| 2026-04-26 13:26 | 46.80764 | 16.17281 | 23102 ft | 361 kts | 349° |
| 2026-04-26 13:26 | 46.83224 | 16.16691 | 22701 ft | 358 kts | 349° |
| 2026-04-26 13:26 | 46.85666 | 16.16104 | 22289 ft | 356 kts | 349° |
| 2026-04-26 13:26 | 46.88107 | 16.15514 | 21882 ft | 353 kts | 349° |
| 2026-04-26 13:27 | 46.90503 | 16.14937 | 21478 ft | 350 kts | 349° |
| 2026-04-26 13:27 | 46.92906 | 16.14358 | 21063 ft | 348 kts | 349° |
| 2026-04-26 13:27 | 46.95274 | 16.13790 | 20668 ft | 345 kts | 349° |
| 2026-04-26 13:27 | 46.97649 | 16.13221 | 20269 ft | 342 kts | 349° |
| 2026-04-26 13:28 | 46.99966 | 16.12665 | 19869 ft | 340 kts | 349° |
| 2026-04-26 13:28 | 47.02293 | 16.12105 | 19451 ft | 337 kts | 349° |
| 2026-04-26 13:28 | 47.04606 | 16.11547 | 19031 ft | 335 kts | 349° |
| 2026-04-26 13:28 | 47.06895 | 16.10994 | 18629 ft | 332 kts | 349° |
| 2026-04-26 13:29 | 47.09128 | 16.10454 | 18228 ft | 329 kts | 349° |
| 2026-04-26 13:29 | 47.10633 | 16.10088 | 17964 ft | 327 kts | 349° |
| 2026-04-26 13:29 | 47.13635 | 16.09365 | 17418 ft | 324 kts | 349° |
| 2026-04-26 13:29 | 47.15845 | 16.08833 | 17023 ft | 322 kts | 349° |
| 2026-04-26 13:30 | 47.18037 | 16.08302 | 16624 ft | 320 kts | 348° |
| 2026-04-26 13:30 | 47.20219 | 16.07771 | 16224 ft | 317 kts | 348° |
| 2026-04-26 13:30 | 47.22376 | 16.07244 | 15844 ft | 315 kts | 348° |
| 2026-04-26 13:30 | 47.24551 | 16.06712 | 15447 ft | 313 kts | 348° |
| 2026-04-26 13:31 | 47.26665 | 16.06196 | 15070 ft | 310 kts | 348° |
| 2026-04-26 13:31 | 47.28801 | 16.05674 | 14677 ft | 308 kts | 348° |
| 2026-04-26 13:31 | 47.30888 | 16.05163 | 14270 ft | 306 kts | 348° |
| 2026-04-26 13:31 | 47.32974 | 16.04655 | 13888 ft | 304 kts | 348° |
| 2026-04-26 13:32 | 47.35062 | 16.04165 | 13500 ft | 303 kts | 351° |
| 2026-04-26 13:32 | 47.37180 | 16.04171 | 13104 ft | 305 kts | 3° |
| 2026-04-26 13:32 | 47.39264 | 16.04849 | 13086 ft | 311 kts | 12° |
| 2026-04-26 13:32 | 47.41331 | 16.05837 | 13132 ft | 313 kts | 14° |
| 2026-04-26 13:33 | 47.43398 | 16.06865 | 13152 ft | 313 kts | 14° |
| 2026-04-26 13:33 | 47.45450 | 16.07893 | 13147 ft | 313 kts | 14° |
| 2026-04-26 13:33 | 47.47521 | 16.08927 | 13084 ft | 314 kts | 14° |
| 2026-04-26 13:33 | 47.49584 | 16.09953 | 12648 ft | 314 kts | 14° |
| 2026-04-26 13:34 | 47.51653 | 16.10984 | 12218 ft | 313 kts | 14° |
| 2026-04-26 13:34 | 47.53712 | 16.12009 | 11797 ft | 311 kts | 13° |
| 2026-04-26 13:34 | 47.55745 | 16.13021 | 11394 ft | 309 kts | 14° |
| 2026-04-26 13:34 | 47.57103 | 16.13696 | 11122 ft | 308 kts | 13° |
| 2026-04-26 13:35 | 47.59782 | 16.15031 | 10605 ft | 304 kts | 13° |
| 2026-04-26 13:35 | 47.61777 | 16.16024 | 10262 ft | 300 kts | 13° |
| 2026-04-26 13:35 | 47.63696 | 16.16985 | 10204 ft | 285 kts | 13° |
| 2026-04-26 13:35 | 47.65514 | 16.17898 | 10129 ft | 272 kts | 13° |
| 2026-04-26 13:36 | 47.67310 | 16.18791 | 9784 ft | 269 kts | 13° |
| 2026-04-26 13:36 | 47.69075 | 16.19671 | 9471 ft | 267 kts | 13° |
| 2026-04-26 13:36 | 47.70819 | 16.20540 | 9162 ft | 264 kts | 13° |
| 2026-04-26 13:36 | 47.72535 | 16.21398 | 8856 ft | 261 kts | 13° |
| 2026-04-26 13:37 | 47.74250 | 16.22255 | 8556 ft | 259 kts | 13° |
| 2026-04-26 13:37 | 47.75933 | 16.23241 | 8232 ft | 261 kts | 26° |
| 2026-04-26 13:37 | 47.77285 | 16.25035 | 7929 ft | 270 kts | 48° |
| 2026-04-26 13:37 | 47.78265 | 16.27432 | 7639 ft | 271 kts | 55° |
| 2026-04-26 13:38 | 47.79180 | 16.29902 | 7341 ft | 270 kts | 56° |
| 2026-04-26 13:38 | 47.80071 | 16.32309 | 7020 ft | 268 kts | 56° |
| 2026-04-26 13:38 | 47.80966 | 16.34713 | 6707 ft | 265 kts | 56° |
| 2026-04-26 13:38 | 47.81869 | 16.37118 | 6396 ft | 262 kts | 55° |
| 2026-04-26 13:39 | 47.82751 | 16.39454 | 6089 ft | 260 kts | 55° |
| 2026-04-26 13:39 | 47.83634 | 16.41783 | 5782 ft | 257 kts | 55° |
| 2026-04-26 13:39 | 47.84336 | 16.44236 | 5463 ft | 261 kts | 76° |
| 2026-04-26 13:39 | 47.84413 | 16.46917 | 5179 ft | 262 kts | 88° |
| 2026-04-26 13:40 | 47.84172 | 16.49619 | 4880 ft | 263 kts | 99° |
| 2026-04-26 13:40 | 47.83719 | 16.52214 | 4586 ft | 262 kts | 101° |
| 2026-04-26 13:40 | 47.83185 | 16.54819 | 4277 ft | 262 kts | 111° |
| 2026-04-26 13:40 | 47.82115 | 16.56979 | 4011 ft | 263 kts | 138° |
| 2026-04-26 13:41 | 47.80564 | 16.58240 | 3967 ft | 250 kts | 162° |
| 2026-04-26 13:41 | 47.78914 | 16.58912 | 3971 ft | 243 kts | 166° |
| 2026-04-26 13:41 | 47.77311 | 16.59498 | 3960 ft | 233 kts | 166° |
| 2026-04-26 13:41 | 47.75687 | 16.60110 | 3973 ft | 240 kts | 165° |
| 2026-04-26 13:42 | 47.74152 | 16.61029 | 3945 ft | 239 kts | 137° |
| 2026-04-26 13:42 | 47.73269 | 16.62963 | 3955 ft | 225 kts | 96° |
| 2026-04-26 13:42 | 47.73425 | 16.65148 | 3958 ft | 209 kts | 56° |
| 2026-04-26 13:42 | 47.74258 | 16.66908 | 3987 ft | 213 kts | 48° |
| 2026-04-26 13:43 | 47.75151 | 16.68715 | 3966 ft | 216 kts | 51° |
| 2026-04-26 13:43 | 47.76114 | 16.70427 | 3951 ft | 215 kts | 34° |
| 2026-04-26 13:43 | 47.77417 | 16.71454 | 3955 ft | 210 kts | 13° |
| 2026-04-26 13:43 | 47.78850 | 16.71662 | 3961 ft | 208 kts | 354° |
| 2026-04-26 13:44 | 47.80259 | 16.71255 | 3972 ft | 208 kts | 347° |
| 2026-04-26 13:44 | 47.81655 | 16.70698 | 3964 ft | 207 kts | 344° |
| 2026-04-26 13:44 | 47.83021 | 16.70117 | 3949 ft | 200 kts | 344° |
| 2026-04-26 13:44 | 47.84316 | 16.69560 | 3939 ft | 185 kts | 343° |
| 2026-04-26 13:45 | 47.85509 | 16.69046 | 4037 ft | 175 kts | 343° |
| 2026-04-26 13:45 | 47.86643 | 16.68559 | 3980 ft | 167 kts | 343° |
| 2026-04-26 13:45 | 47.87761 | 16.68080 | 3969 ft | 167 kts | 343° |
| 2026-04-26 13:45 | 47.88877 | 16.67602 | 3965 ft | 167 kts | 343° |
| 2026-04-26 13:46 | 47.89990 | 16.67127 | 3963 ft | 167 kts | 343° |
| 2026-04-26 13:46 | 47.91108 | 16.66652 | 3962 ft | 167 kts | 343° |
| 2026-04-26 13:46 | 47.92232 | 16.66173 | 3881 ft | 168 kts | 343° |
| 2026-04-26 13:46 | 47.93346 | 16.65700 | 3677 ft | 166 kts | 344° |
| 2026-04-26 13:47 | 47.94459 | 16.65228 | 3453 ft | 162 kts | 345° |
| 2026-04-26 13:47 | 47.95488 | 16.64792 | 3261 ft | 150 kts | 345° |
| 2026-04-26 13:47 | 47.96463 | 16.64378 | 3051 ft | 143 kts | 345° |
| 2026-04-26 13:47 | 47.97413 | 16.63977 | 2890 ft | 143 kts | 345° |
| 2026-04-26 13:48 | 47.98341 | 16.63584 | 2686 ft | 135 kts | 345° |
| 2026-04-26 13:48 | 47.99244 | 16.63201 | 2510 ft | 134 kts | 345° |
| 2026-04-26 13:48 | 48.00137 | 16.62823 | 2335 ft | 133 kts | 346° |
| 2026-04-26 13:48 | 48.01038 | 16.62444 | 2164 ft | 133 kts | 343° |
| 2026-04-26 13:49 | 48.01917 | 16.62070 | 1988 ft | 132 kts | 346° |
| 2026-04-26 13:49 | 48.02806 | 16.61695 | 1815 ft | 132 kts | 344° |
| 2026-04-26 13:49 | 48.03706 | 16.61314 | 1645 ft | 133 kts | 346° |
| 2026-04-26 13:49 | 48.04589 | 16.60942 | 1461 ft | 135 kts | 343° |
| 2026-04-26 13:50 | 48.05499 | 16.60555 | 1284 ft | 135 kts | 347° |
| 2026-04-26 13:50 | 48.06362 | 16.60192 | 1082 ft | 122 kts | 344° |
| 2026-04-26 13:50 | 48.07170 | 16.59845 | 933 ft | 121 kts | 348° |
| 2026-04-26 13:50 | 48.07978 | 16.59495 | 773 ft | 121 kts | 347° |
| 2026-04-26 13:51 | 48.08798 | 16.59157 | 637 ft | 122 kts | 348° |
| 2026-04-26 13:51 | 48.09608 | 16.58830 | 596 ft | 115 kts | 341° |
| 2026-04-26 13:51 | 48.10214 | 16.58567 | 599 ft | 65 kts | 345° |
| 2026-04-26 13:51 | 48.10584 | 16.58410 | 599 ft | 51 kts | 345° |
| 2026-04-26 13:52 | 48.10800 | 16.58176 | 599 ft | 28 kts | 315° |
| 2026-04-26 13:52 | 48.10928 | 16.57972 | 598 ft | 26 kts | 315° |
| 2026-04-26 13:52 | 48.11043 | 16.57782 | 598 ft | 23 kts | 297° |
| 2026-04-26 13:52 | 48.11116 | 16.57566 | 599 ft | 22 kts | 296° |
| 2026-04-26 13:53 | 48.11179 | 16.57370 | 602 ft | 19 kts | 296° |
| 2026-04-26 13:53 | 48.11237 | 16.57189 | 604 ft | 18 kts | 296° |
| 2026-04-26 13:53 | 48.11293 | 16.57019 | 605 ft | 17 kts | 297° |
| 2026-04-26 13:53 | 48.11350 | 16.56849 | 603 ft | 19 kts | 307° |
| 2026-04-26 13:54 | 48.11462 | 16.56868 | 605 ft | 16 kts | 27° |
| 2026-04-26 13:54 | 48.11560 | 16.56920 | 606 ft | 10 kts | 349° |
| 2026-04-26 13:54 | 48.11620 | 16.56931 | 606 ft | 7 kts | 27° |
| 2026-04-26 13:55 | 48.11656 | 16.56957 | 606 ft | 0 kts | 26° |